sensor_id;sensor_type;location;lat;lon;timestamp;P1;durP1;ratioP1;P2;durP2;ratioP2
55633;SDS011;41504;53.162;6.788;2023-04-03T00:00:22;3.25;;;1.35;;
55633;SDS011;41504;53.162;6.788;2023-04-03T00:02:48;3.28;;;1.30;;
55633;SDS011;41504;53.162;6.788;2023-04-03T00:05:14;3.30;;;1.17;;
55633;SDS011;41504;53.162;6.788;2023-04-03T00:07:40;3.72;;;1.30;;
55633;SDS011;41504;53.162;6.788;2023-04-03T00:10:06;3.75;;;1.40;;
55633;SDS011;41504;53.162;6.788;2023-04-03T00:12:32;3.55;;;1.50;;
55633;SDS011;41504;53.162;6.788;2023-04-03T00:14:58;4.18;;;1.60;;
55633;SDS011;41504;53.162;6.788;2023-04-03T00:17:24;4.45;;;1.40;;
55633;SDS011;41504;53.162;6.788;2023-04-03T00:19:50;2.30;;;1.10;;
55633;SDS011;41504;53.162;6.788;2023-04-03T00:22:15;3.15;;;1.30;;
55633;SDS011;41504;53.162;6.788;2023-04-03T00:24:41;4.80;;;1.40;;
55633;SDS011;41504;53.162;6.788;2023-04-03T00:27:07;2.38;;;1.15;;
55633;SDS011;41504;53.162;6.788;2023-04-03T00:29:32;4.97;;;1.40;;
55633;SDS011;41504;53.162;6.788;2023-04-03T00:31:58;4.18;;;1.40;;
55633;SDS011;41504;53.162;6.788;2023-04-03T00:34:24;4.30;;;1.30;;
55633;SDS011;41504;53.162;6.788;2023-04-03T00:36:49;4.15;;;1.20;;
55633;SDS011;41504;53.162;6.788;2023-04-03T00:39:16;3.88;;;1.45;;
55633;SDS011;41504;53.162;6.788;2023-04-03T00:41:42;4.15;;;1.50;;
55633;SDS011;41504;53.162;6.788;2023-04-03T00:44:21;4.22;;;1.42;;
55633;SDS011;41504;53.162;6.788;2023-04-03T00:47:08;4.43;;;1.50;;
55633;SDS011;41504;53.162;6.788;2023-04-03T00:49:37;4.85;;;1.70;;
55633;SDS011;41504;53.162;6.788;2023-04-03T00:52:05;5.57;;;1.60;;
55633;SDS011;41504;53.162;6.788;2023-04-03T00:54:35;4.65;;;1.50;;
55633;SDS011;41504;53.162;6.788;2023-04-03T00:57:02;3.80;;;1.50;;
55633;SDS011;41504;53.162;6.788;2023-04-03T00:59:30;5.28;;;1.50;;
55633;SDS011;41504;53.162;6.788;2023-04-03T01:01:58;4.90;;;1.67;;
55633;SDS011;41504;53.162;6.788;2023-04-03T01:04:29;3.75;;;1.40;;
55633;SDS011;41504;53.162;6.788;2023-04-03T01:07:12;7.70;;;1.58;;
55633;SDS011;41504;53.162;6.788;2023-04-03T01:09:41;4.38;;;1.60;;
55633;SDS011;41504;53.162;6.788;2023-04-03T01:12:15;4.18;;;1.35;;
55633;SDS011;41504;53.162;6.788;2023-04-03T01:14:46;5.20;;;1.50;;
55633;SDS011;41504;53.162;6.788;2023-04-03T01:17:24;5.32;;;1.77;;
55633;SDS011;41504;53.162;6.788;2023-04-03T01:25:37;5.90;;;1.95;;
55633;SDS011;41504;53.162;6.788;2023-04-03T01:28:07;3.65;;;1.48;;
55633;SDS011;41504;53.162;6.788;2023-04-03T01:30:36;4.90;;;1.70;;
55633;SDS011;41504;53.162;6.788;2023-04-03T01:33:10;5.53;;;1.75;;
55633;SDS011;41504;53.162;6.788;2023-04-03T01:35:35;5.25;;;1.90;;
55633;SDS011;41504;53.162;6.788;2023-04-03T01:38:02;4.78;;;1.70;;
55633;SDS011;41504;53.162;6.788;2023-04-03T01:40:27;6.35;;;1.70;;
55633;SDS011;41504;53.162;6.788;2023-04-03T01:42:53;5.38;;;1.77;;
55633;SDS011;41504;53.162;6.788;2023-04-03T01:45:19;5.18;;;1.67;;
55633;SDS011;41504;53.162;6.788;2023-04-03T01:47:45;7.05;;;1.73;;
55633;SDS011;41504;53.162;6.788;2023-04-03T01:50:10;6.95;;;2.05;;
55633;SDS011;41504;53.162;6.788;2023-04-03T01:52:36;6.65;;;1.90;;
55633;SDS011;41504;53.162;6.788;2023-04-03T01:55:02;5.15;;;1.63;;
55633;SDS011;41504;53.162;6.788;2023-04-03T01:57:28;5.95;;;1.73;;
55633;SDS011;41504;53.162;6.788;2023-04-03T01:59:54;3.58;;;1.55;;
55633;SDS011;41504;53.162;6.788;2023-04-03T02:02:20;4.97;;;1.50;;
55633;SDS011;41504;53.162;6.788;2023-04-03T02:04:45;4.47;;;1.63;;
55633;SDS011;41504;53.162;6.788;2023-04-03T02:07:11;5.35;;;1.75;;
55633;SDS011;41504;53.162;6.788;2023-04-03T02:09:37;5.43;;;1.60;;
55633;SDS011;41504;53.162;6.788;2023-04-03T02:12:02;7.50;;;2.10;;
55633;SDS011;41504;53.162;6.788;2023-04-03T02:14:28;6.15;;;1.65;;
55633;SDS011;41504;53.162;6.788;2023-04-03T02:16:54;5.45;;;1.58;;
55633;SDS011;41504;53.162;6.788;2023-04-03T02:19:20;6.03;;;1.85;;
55633;SDS011;41504;53.162;6.788;2023-04-03T02:21:46;6.75;;;1.83;;
55633;SDS011;41504;53.162;6.788;2023-04-03T02:24:11;5.18;;;1.80;;
55633;SDS011;41504;53.162;6.788;2023-04-03T02:26:37;5.18;;;1.90;;
55633;SDS011;41504;53.162;6.788;2023-04-03T02:29:02;5.28;;;1.92;;
55633;SDS011;41504;53.162;6.788;2023-04-03T02:31:28;5.72;;;2.05;;
55633;SDS011;41504;53.162;6.788;2023-04-03T02:33:54;6.68;;;1.90;;
55633;SDS011;41504;53.162;6.788;2023-04-03T02:36:20;5.97;;;1.95;;
55633;SDS011;41504;53.162;6.788;2023-04-03T02:38:46;5.90;;;2.00;;
55633;SDS011;41504;53.162;6.788;2023-04-03T02:41:12;6.18;;;1.83;;
55633;SDS011;41504;53.162;6.788;2023-04-03T02:43:38;5.95;;;1.83;;
55633;SDS011;41504;53.162;6.788;2023-04-03T02:46:04;5.97;;;2.10;;
55633;SDS011;41504;53.162;6.788;2023-04-03T02:48:30;6.95;;;2.00;;
55633;SDS011;41504;53.162;6.788;2023-04-03T02:50:56;7.03;;;1.98;;
55633;SDS011;41504;53.162;6.788;2023-04-03T02:53:22;5.05;;;1.90;;
55633;SDS011;41504;53.162;6.788;2023-04-03T02:55:48;6.53;;;2.35;;
55633;SDS011;41504;53.162;6.788;2023-04-03T02:58:14;4.95;;;2.00;;
55633;SDS011;41504;53.162;6.788;2023-04-03T03:00:40;5.25;;;1.85;;
55633;SDS011;41504;53.162;6.788;2023-04-03T03:03:05;7.80;;;2.00;;
55633;SDS011;41504;53.162;6.788;2023-04-03T03:05:31;7.38;;;2.10;;
55633;SDS011;41504;53.162;6.788;2023-04-03T03:07:57;6.85;;;2.13;;
55633;SDS011;41504;53.162;6.788;2023-04-03T03:10:23;6.63;;;1.90;;
55633;SDS011;41504;53.162;6.788;2023-04-03T03:12:49;6.35;;;2.13;;
55633;SDS011;41504;53.162;6.788;2023-04-03T03:15:15;4.25;;;1.58;;
55633;SDS011;41504;53.162;6.788;2023-04-03T03:17:42;5.22;;;2.00;;
55633;SDS011;41504;53.162;6.788;2023-04-03T03:20:08;4.78;;;1.88;;
55633;SDS011;41504;53.162;6.788;2023-04-03T03:22:34;6.40;;;2.17;;
55633;SDS011;41504;53.162;6.788;2023-04-03T03:25:00;8.77;;;2.65;;
55633;SDS011;41504;53.162;6.788;2023-04-03T03:27:27;7.57;;;2.13;;
55633;SDS011;41504;53.162;6.788;2023-04-03T03:29:53;8.63;;;2.20;;
55633;SDS011;41504;53.162;6.788;2023-04-03T03:32:19;4.90;;;2.00;;
55633;SDS011;41504;53.162;6.788;2023-04-03T03:34:44;6.80;;;2.13;;
55633;SDS011;41504;53.162;6.788;2023-04-03T03:37:10;6.55;;;1.92;;
55633;SDS011;41504;53.162;6.788;2023-04-03T03:39:36;5.18;;;2.40;;
55633;SDS011;41504;53.162;6.788;2023-04-03T03:42:01;8.10;;;2.33;;
55633;SDS011;41504;53.162;6.788;2023-04-03T03:44:27;5.07;;;2.13;;
55633;SDS011;41504;53.162;6.788;2023-04-03T03:46:54;6.05;;;2.15;;
55633;SDS011;41504;53.162;6.788;2023-04-03T03:49:21;6.28;;;2.40;;
55633;SDS011;41504;53.162;6.788;2023-04-03T03:51:46;7.70;;;2.50;;
55633;SDS011;41504;53.162;6.788;2023-04-03T03:54:12;9.00;;;2.47;;
55633;SDS011;41504;53.162;6.788;2023-04-03T03:56:39;6.45;;;2.72;;
55633;SDS011;41504;53.162;6.788;2023-04-03T03:59:05;6.53;;;2.55;;
55633;SDS011;41504;53.162;6.788;2023-04-03T04:01:31;6.50;;;2.47;;
55633;SDS011;41504;53.162;6.788;2023-04-03T04:03:57;6.25;;;2.38;;
55633;SDS011;41504;53.162;6.788;2023-04-03T04:06:23;8.35;;;2.47;;
55633;SDS011;41504;53.162;6.788;2023-04-03T04:08:49;6.78;;;2.45;;
55633;SDS011;41504;53.162;6.788;2023-04-03T04:11:15;6.35;;;2.90;;
55633;SDS011;41504;53.162;6.788;2023-04-03T04:13:40;5.82;;;2.40;;
55633;SDS011;41504;53.162;6.788;2023-04-03T04:16:06;5.78;;;2.40;;
55633;SDS011;41504;53.162;6.788;2023-04-03T04:18:33;8.05;;;2.53;;
55633;SDS011;41504;53.162;6.788;2023-04-03T04:20:58;8.30;;;2.70;;
55633;SDS011;41504;53.162;6.788;2023-04-03T04:23:24;7.70;;;3.10;;
55633;SDS011;41504;53.162;6.788;2023-04-03T04:25:50;5.85;;;2.35;;
55633;SDS011;41504;53.162;6.788;2023-04-03T04:28:16;7.53;;;2.33;;
55633;SDS011;41504;53.162;6.788;2023-04-03T04:30:42;7.15;;;2.78;;
55633;SDS011;41504;53.162;6.788;2023-04-03T04:33:08;5.13;;;2.10;;
55633;SDS011;41504;53.162;6.788;2023-04-03T04:35:34;8.80;;;2.63;;
55633;SDS011;41504;53.162;6.788;2023-04-03T04:37:59;6.50;;;2.58;;
55633;SDS011;41504;53.162;6.788;2023-04-03T04:40:26;9.80;;;2.70;;
55633;SDS011;41504;53.162;6.788;2023-04-03T04:42:51;5.53;;;2.40;;
55633;SDS011;41504;53.162;6.788;2023-04-03T04:45:18;6.00;;;2.47;;
55633;SDS011;41504;53.162;6.788;2023-04-03T04:47:43;11.15;;;2.53;;
55633;SDS011;41504;53.162;6.788;2023-04-03T04:50:09;8.82;;;2.72;;
55633;SDS011;41504;53.162;6.788;2023-04-03T04:52:36;7.32;;;2.60;;
55633;SDS011;41504;53.162;6.788;2023-04-03T04:55:02;6.90;;;2.45;;
55633;SDS011;41504;53.162;6.788;2023-04-03T04:57:28;10.70;;;2.90;;
55633;SDS011;41504;53.162;6.788;2023-04-03T04:59:54;7.88;;;2.60;;
55633;SDS011;41504;53.162;6.788;2023-04-03T05:02:20;8.98;;;2.63;;
55633;SDS011;41504;53.162;6.788;2023-04-03T05:04:46;6.28;;;2.75;;
55633;SDS011;41504;53.162;6.788;2023-04-03T05:07:11;8.90;;;3.58;;
55633;SDS011;41504;53.162;6.788;2023-04-03T05:09:37;9.60;;;3.70;;
55633;SDS011;41504;53.162;6.788;2023-04-03T05:12:03;8.00;;;3.55;;
55633;SDS011;41504;53.162;6.788;2023-04-03T05:14:29;8.60;;;3.53;;
55633;SDS011;41504;53.162;6.788;2023-04-03T05:16:55;6.68;;;2.78;;
55633;SDS011;41504;53.162;6.788;2023-04-03T05:19:22;8.05;;;3.22;;
55633;SDS011;41504;53.162;6.788;2023-04-03T05:21:48;11.43;;;2.90;;
55633;SDS011;41504;53.162;6.788;2023-04-03T05:24:14;7.55;;;2.97;;
55633;SDS011;41504;53.162;6.788;2023-04-03T05:26:41;7.95;;;2.92;;
55633;SDS011;41504;53.162;6.788;2023-04-03T05:29:08;9.27;;;3.50;;
55633;SDS011;41504;53.162;6.788;2023-04-03T05:31:34;8.98;;;3.38;;
55633;SDS011;41504;53.162;6.788;2023-04-03T05:34:00;8.23;;;2.92;;
55633;SDS011;41504;53.162;6.788;2023-04-03T05:36:26;7.22;;;3.20;;
55633;SDS011;41504;53.162;6.788;2023-04-03T05:38:52;8.27;;;3.08;;
55633;SDS011;41504;53.162;6.788;2023-04-03T05:41:18;8.57;;;3.25;;
55633;SDS011;41504;53.162;6.788;2023-04-03T05:43:45;7.22;;;3.00;;
55633;SDS011;41504;53.162;6.788;2023-04-03T05:46:12;9.73;;;3.22;;
55633;SDS011;41504;53.162;6.788;2023-04-03T05:48:40;7.32;;;2.95;;
55633;SDS011;41504;53.162;6.788;2023-04-03T05:51:07;6.57;;;3.00;;
55633;SDS011;41504;53.162;6.788;2023-04-03T05:53:40;9.38;;;3.08;;
55633;SDS011;41504;53.162;6.788;2023-04-03T05:56:06;8.73;;;3.15;;
55633;SDS011;41504;53.162;6.788;2023-04-03T05:58:32;8.18;;;2.53;;
55633;SDS011;41504;53.162;6.788;2023-04-03T06:00:57;8.85;;;2.80;;
55633;SDS011;41504;53.162;6.788;2023-04-03T06:03:23;8.68;;;3.00;;
55633;SDS011;41504;53.162;6.788;2023-04-03T06:05:50;6.80;;;2.70;;
55633;SDS011;41504;53.162;6.788;2023-04-03T06:08:16;7.38;;;2.88;;
55633;SDS011;41504;53.162;6.788;2023-04-03T06:10:41;8.27;;;2.92;;
55633;SDS011;41504;53.162;6.788;2023-04-03T06:13:07;8.07;;;2.53;;
55633;SDS011;41504;53.162;6.788;2023-04-03T06:15:33;8.52;;;3.00;;
55633;SDS011;41504;53.162;6.788;2023-04-03T06:17:59;10.13;;;2.97;;
55633;SDS011;41504;53.162;6.788;2023-04-03T06:20:25;9.02;;;2.90;;
55633;SDS011;41504;53.162;6.788;2023-04-03T06:22:51;9.27;;;2.85;;
55633;SDS011;41504;53.162;6.788;2023-04-03T06:25:16;7.05;;;2.70;;
55633;SDS011;41504;53.162;6.788;2023-04-03T06:27:44;7.10;;;3.00;;
55633;SDS011;41504;53.162;6.788;2023-04-03T06:30:10;8.02;;;2.95;;
55633;SDS011;41504;53.162;6.788;2023-04-03T06:32:36;7.40;;;3.28;;
55633;SDS011;41504;53.162;6.788;2023-04-03T06:35:03;8.55;;;3.47;;
55633;SDS011;41504;53.162;6.788;2023-04-03T06:37:29;8.63;;;3.70;;
55633;SDS011;41504;53.162;6.788;2023-04-03T06:39:55;8.75;;;3.17;;
55633;SDS011;41504;53.162;6.788;2023-04-03T06:42:21;12.27;;;3.85;;
55633;SDS011;41504;53.162;6.788;2023-04-03T06:44:48;10.55;;;3.30;;
55633;SDS011;41504;53.162;6.788;2023-04-03T06:47:14;7.40;;;3.03;;
55633;SDS011;41504;53.162;6.788;2023-04-03T06:49:40;7.95;;;3.33;;
55633;SDS011;41504;53.162;6.788;2023-04-03T06:52:07;6.28;;;3.10;;
55633;SDS011;41504;53.162;6.788;2023-04-03T06:54:34;8.77;;;3.50;;
55633;SDS011;41504;53.162;6.788;2023-04-03T06:57:00;8.23;;;2.92;;
55633;SDS011;41504;53.162;6.788;2023-04-03T06:59:26;9.35;;;3.50;;
55633;SDS011;41504;53.162;6.788;2023-04-03T07:01:52;9.30;;;3.35;;
55633;SDS011;41504;53.162;6.788;2023-04-03T07:04:18;10.70;;;3.67;;
55633;SDS011;41504;53.162;6.788;2023-04-03T07:06:45;7.05;;;2.70;;
55633;SDS011;41504;53.162;6.788;2023-04-03T07:09:12;7.95;;;3.17;;
55633;SDS011;41504;53.162;6.788;2023-04-03T07:11:38;8.60;;;3.55;;
55633;SDS011;41504;53.162;6.788;2023-04-03T07:14:05;7.28;;;3.35;;
55633;SDS011;41504;53.162;6.788;2023-04-03T07:16:33;8.57;;;3.03;;
55633;SDS011;41504;53.162;6.788;2023-04-03T07:18:59;9.25;;;3.42;;
55633;SDS011;41504;53.162;6.788;2023-04-03T07:21:26;9.20;;;2.80;;
55633;SDS011;41504;53.162;6.788;2023-04-03T07:23:53;8.93;;;3.13;;
55633;SDS011;41504;53.162;6.788;2023-04-03T07:26:19;7.95;;;2.72;;
55633;SDS011;41504;53.162;6.788;2023-04-03T07:28:46;7.75;;;2.70;;
55633;SDS011;41504;53.162;6.788;2023-04-03T07:31:13;8.27;;;2.90;;
55633;SDS011;41504;53.162;6.788;2023-04-03T07:33:40;9.27;;;2.97;;
55633;SDS011;41504;53.162;6.788;2023-04-03T07:36:06;8.68;;;2.25;;
55633;SDS011;41504;53.162;6.788;2023-04-03T07:38:33;9.48;;;2.75;;
55633;SDS011;41504;53.162;6.788;2023-04-03T07:41:00;8.70;;;2.20;;
55633;SDS011;41504;53.162;6.788;2023-04-03T07:43:26;6.10;;;2.00;;
55633;SDS011;41504;53.162;6.788;2023-04-03T07:45:52;8.05;;;2.65;;
55633;SDS011;41504;53.162;6.788;2023-04-03T07:48:20;7.30;;;2.25;;
55633;SDS011;41504;53.162;6.788;2023-04-03T07:50:46;8.00;;;2.60;;
55633;SDS011;41504;53.162;6.788;2023-04-03T07:53:12;5.97;;;2.35;;
55633;SDS011;41504;53.162;6.788;2023-04-03T07:55:39;6.25;;;2.10;;
55633;SDS011;41504;53.162;6.788;2023-04-03T07:58:11;8.35;;;2.33;;
55633;SDS011;41504;53.162;6.788;2023-04-03T08:00:39;7.32;;;2.20;;
55633;SDS011;41504;53.162;6.788;2023-04-03T08:03:06;6.43;;;2.03;;
55633;SDS011;41504;53.162;6.788;2023-04-03T08:05:36;7.57;;;2.50;;
55633;SDS011;41504;53.162;6.788;2023-04-03T08:08:02;6.15;;;2.13;;
55633;SDS011;41504;53.162;6.788;2023-04-03T08:10:29;6.28;;;2.10;;
55633;SDS011;41504;53.162;6.788;2023-04-03T08:12:55;8.77;;;2.35;;
55633;SDS011;41504;53.162;6.788;2023-04-03T08:15:21;5.03;;;2.10;;
55633;SDS011;41504;53.162;6.788;2023-04-03T08:17:47;5.88;;;2.45;;
55633;SDS011;41504;53.162;6.788;2023-04-03T08:20:13;7.57;;;2.08;;
55633;SDS011;41504;53.162;6.788;2023-04-03T08:22:39;7.18;;;2.50;;
55633;SDS011;41504;53.162;6.788;2023-04-03T08:25:04;5.35;;;2.30;;
55633;SDS011;41504;53.162;6.788;2023-04-03T08:27:31;6.03;;;2.33;;
55633;SDS011;41504;53.162;6.788;2023-04-03T08:29:56;5.82;;;2.40;;
55633;SDS011;41504;53.162;6.788;2023-04-03T08:32:22;5.97;;;2.35;;
55633;SDS011;41504;53.162;6.788;2023-04-03T08:34:49;7.32;;;2.58;;
55633;SDS011;41504;53.162;6.788;2023-04-03T08:37:15;6.45;;;2.45;;
55633;SDS011;41504;53.162;6.788;2023-04-03T08:39:41;6.53;;;2.40;;
55633;SDS011;41504;53.162;6.788;2023-04-03T08:48:00;5.68;;;2.15;;
55633;SDS011;41504;53.162;6.788;2023-04-03T08:50:39;4.45;;;1.70;;
55633;SDS011;41504;53.162;6.788;2023-04-03T08:53:14;4.63;;;1.95;;
55633;SDS011;41504;53.162;6.788;2023-04-03T08:55:43;7.28;;;2.10;;
55633;SDS011;41504;53.162;6.788;2023-04-03T08:58:15;4.72;;;2.00;;
55633;SDS011;41504;53.162;6.788;2023-04-03T09:03:23;3.55;;;1.58;;
55633;SDS011;41504;53.162;6.788;2023-04-03T09:05:54;6.15;;;1.90;;
55633;SDS011;41504;53.162;6.788;2023-04-03T09:11:27;5.28;;;1.88;;
55633;SDS011;41504;53.162;6.788;2023-04-03T09:14:17;5.82;;;1.95;;
55633;SDS011;41504;53.162;6.788;2023-04-03T09:22:17;5.72;;;1.90;;
55633;SDS011;41504;53.162;6.788;2023-04-03T09:27:38;5.47;;;1.80;;
55633;SDS011;41504;53.162;6.788;2023-04-03T09:30:05;6.10;;;2.25;;
55633;SDS011;41504;53.162;6.788;2023-04-03T09:32:34;5.75;;;2.00;;
55633;SDS011;41504;53.162;6.788;2023-04-03T09:35:13;4.65;;;1.60;;
55633;SDS011;41504;53.162;6.788;2023-04-03T09:37:45;5.68;;;1.90;;
55633;SDS011;41504;53.162;6.788;2023-04-03T09:42:57;7.43;;;1.98;;
55633;SDS011;41504;53.162;6.788;2023-04-03T09:45:29;5.70;;;1.80;;
55633;SDS011;41504;53.162;6.788;2023-04-03T09:50:54;4.55;;;1.60;;
55633;SDS011;41504;53.162;6.788;2023-04-03T09:53:42;5.22;;;1.75;;
55633;SDS011;41504;53.162;6.788;2023-04-03T09:58:42;3.92;;;1.52;;
55633;SDS011;41504;53.162;6.788;2023-04-03T10:06:42;3.90;;;1.40;;
55633;SDS011;41504;53.162;6.788;2023-04-03T10:09:22;5.10;;;1.70;;
55633;SDS011;41504;53.162;6.788;2023-04-03T10:12:00;5.15;;;1.45;;
55633;SDS011;41504;53.162;6.788;2023-04-03T10:14:35;4.55;;;1.88;;
55633;SDS011;41504;53.162;6.788;2023-04-03T10:17:22;5.47;;;1.90;;
55633;SDS011;41504;53.162;6.788;2023-04-03T10:25:40;5.05;;;1.55;;
55633;SDS011;41504;53.162;6.788;2023-04-03T10:28:25;4.05;;;1.50;;
55633;SDS011;41504;53.162;6.788;2023-04-03T10:30:58;3.42;;;1.35;;
55633;SDS011;41504;53.162;6.788;2023-04-03T10:39:11;4.85;;;1.45;;
55633;SDS011;41504;53.162;6.788;2023-04-03T10:41:59;3.63;;;1.30;;
55633;SDS011;41504;53.162;6.788;2023-04-03T10:47:28;3.53;;;1.40;;
55633;SDS011;41504;53.162;6.788;2023-04-03T10:58:43;3.28;;;1.23;;
55633;SDS011;41504;53.162;6.788;2023-04-03T11:01:17;2.78;;;1.13;;
55633;SDS011;41504;53.162;6.788;2023-04-03T11:03:47;5.97;;;1.60;;
55633;SDS011;41504;53.162;6.788;2023-04-03T11:06:18;3.15;;;1.33;;
55633;SDS011;41504;53.162;6.788;2023-04-03T11:08:50;4.25;;;1.40;;
55633;SDS011;41504;53.162;6.788;2023-04-03T11:11:26;3.80;;;1.23;;
55633;SDS011;41504;53.162;6.788;2023-04-03T11:16:26;3.75;;;1.40;;
55633;SDS011;41504;53.162;6.788;2023-04-03T11:19:01;5.40;;;1.83;;
55633;SDS011;41504;53.162;6.788;2023-04-03T11:24:00;4.47;;;1.23;;
55633;SDS011;41504;53.162;6.788;2023-04-03T11:26:31;2.53;;;1.20;;
55633;SDS011;41504;53.162;6.788;2023-04-03T11:29:03;2.27;;;1.20;;
55633;SDS011;41504;53.162;6.788;2023-04-03T11:31:38;3.83;;;1.48;;
55633;SDS011;41504;53.162;6.788;2023-04-03T11:39:46;5.22;;;1.60;;
55633;SDS011;41504;53.162;6.788;2023-04-03T11:44:48;3.65;;;1.63;;
55633;SDS011;41504;53.162;6.788;2023-04-03T11:47:43;4.20;;;1.55;;
55633;SDS011;41504;53.162;6.788;2023-04-03T11:52:56;4.68;;;1.48;;
55633;SDS011;41504;53.162;6.788;2023-04-03T11:55:41;4.97;;;1.45;;
55633;SDS011;41504;53.162;6.788;2023-04-03T11:58:13;2.92;;;1.35;;
55633;SDS011;41504;53.162;6.788;2023-04-03T12:26:47;4.20;;;1.30;;
55633;SDS011;41504;53.162;6.788;2023-04-03T12:37:46;3.92;;;1.40;;
55633;SDS011;41504;53.162;6.788;2023-04-03T12:48:56;3.80;;;1.50;;
55633;SDS011;41504;53.162;6.788;2023-04-03T12:51:56;3.92;;;1.20;;
55633;SDS011;41504;53.162;6.788;2023-04-03T12:54:19;4.93;;;1.60;;
55633;SDS011;41504;53.162;6.788;2023-04-03T12:56:51;3.40;;;1.48;;
55633;SDS011;41504;53.162;6.788;2023-04-03T13:01:53;3.30;;;1.33;;
55633;SDS011;41504;53.162;6.788;2023-04-03T13:04:21;3.58;;;1.40;;
55633;SDS011;41504;53.162;6.788;2023-04-03T13:06:47;3.25;;;1.23;;
55633;SDS011;41504;53.162;6.788;2023-04-03T13:09:23;4.43;;;1.50;;
55633;SDS011;41504;53.162;6.788;2023-04-03T13:11:58;4.20;;;1.55;;
55633;SDS011;41504;53.162;6.788;2023-04-03T13:14:34;3.03;;;1.02;;
55633;SDS011;41504;53.162;6.788;2023-04-03T13:19:41;4.47;;;1.20;;
55633;SDS011;41504;53.162;6.788;2023-04-03T13:22:23;3.72;;;1.33;;
55633;SDS011;41504;53.162;6.788;2023-04-03T13:24:51;3.28;;;1.30;;
55633;SDS011;41504;53.162;6.788;2023-04-03T13:27:19;3.38;;;1.13;;
55633;SDS011;41504;53.162;6.788;2023-04-03T13:29:48;3.35;;;1.27;;
55633;SDS011;41504;53.162;6.788;2023-04-03T13:32:20;3.97;;;1.40;;
55633;SDS011;41504;53.162;6.788;2023-04-03T13:34:48;3.88;;;1.40;;
55633;SDS011;41504;53.162;6.788;2023-04-03T13:37:25;3.75;;;1.10;;
55633;SDS011;41504;53.162;6.788;2023-04-03T13:42:27;2.83;;;1.30;;
55633;SDS011;41504;53.162;6.788;2023-04-03T13:47:53;1.65;;;1.00;;
55633;SDS011;41504;53.162;6.788;2023-04-03T13:50:32;2.70;;;1.23;;
55633;SDS011;41504;53.162;6.788;2023-04-03T13:53:02;3.95;;;1.40;;
55633;SDS011;41504;53.162;6.788;2023-04-03T13:55:39;3.00;;;1.30;;
55633;SDS011;41504;53.162;6.788;2023-04-03T13:58:51;4.13;;;1.50;;
55633;SDS011;41504;53.162;6.788;2023-04-03T14:01:19;4.25;;;1.50;;
55633;SDS011;41504;53.162;6.788;2023-04-03T14:03:57;3.58;;;1.40;;
55633;SDS011;41504;53.162;6.788;2023-04-03T14:06:25;2.88;;;1.27;;
55633;SDS011;41504;53.162;6.788;2023-04-03T14:08:52;2.58;;;1.20;;
55633;SDS011;41504;53.162;6.788;2023-04-03T14:11:22;3.97;;;1.23;;
55633;SDS011;41504;53.162;6.788;2023-04-03T14:13:52;3.30;;;1.20;;
55633;SDS011;41504;53.162;6.788;2023-04-03T14:16:19;3.20;;;1.23;;
55633;SDS011;41504;53.162;6.788;2023-04-03T14:18:47;2.45;;;1.17;;
55633;SDS011;41504;53.162;6.788;2023-04-03T14:21:16;2.72;;;1.30;;
55633;SDS011;41504;53.162;6.788;2023-04-03T14:23:43;3.38;;;1.20;;
55633;SDS011;41504;53.162;6.788;2023-04-03T14:26:13;2.88;;;1.20;;
55633;SDS011;41504;53.162;6.788;2023-04-03T14:28:42;2.83;;;1.35;;
55633;SDS011;41504;53.162;6.788;2023-04-03T14:31:13;1.77;;;1.00;;
55633;SDS011;41504;53.162;6.788;2023-04-03T14:33:40;3.65;;;1.08;;
55633;SDS011;41504;53.162;6.788;2023-04-03T14:36:16;3.88;;;1.50;;
55633;SDS011;41504;53.162;6.788;2023-04-03T14:38:55;3.55;;;1.50;;
55633;SDS011;41504;53.162;6.788;2023-04-03T14:41:22;3.70;;;1.55;;
55633;SDS011;41504;53.162;6.788;2023-04-03T14:43:50;6.68;;;1.40;;
55633;SDS011;41504;53.162;6.788;2023-04-03T14:46:17;3.30;;;1.40;;
55633;SDS011;41504;53.162;6.788;2023-04-03T14:48:46;5.68;;;1.60;;
55633;SDS011;41504;53.162;6.788;2023-04-03T14:51:12;3.75;;;1.42;;
55633;SDS011;41504;53.162;6.788;2023-04-03T14:53:39;4.60;;;1.40;;
55633;SDS011;41504;53.162;6.788;2023-04-03T14:56:11;3.65;;;1.30;;
55633;SDS011;41504;53.162;6.788;2023-04-03T14:58:37;3.83;;;1.42;;
55633;SDS011;41504;53.162;6.788;2023-04-03T15:01:02;4.22;;;1.55;;
55633;SDS011;41504;53.162;6.788;2023-04-03T15:03:28;3.08;;;1.33;;
55633;SDS011;41504;53.162;6.788;2023-04-03T15:05:54;3.35;;;1.60;;
55633;SDS011;41504;53.162;6.788;2023-04-03T15:08:24;3.47;;;1.65;;
55633;SDS011;41504;53.162;6.788;2023-04-03T15:10:54;5.20;;;1.83;;
55633;SDS011;41504;53.162;6.788;2023-04-03T15:13:21;3.53;;;1.30;;
55633;SDS011;41504;53.162;6.788;2023-04-03T15:15:48;5.10;;;1.40;;
55633;SDS011;41504;53.162;6.788;2023-04-03T15:18:17;3.83;;;1.45;;
55633;SDS011;41504;53.162;6.788;2023-04-03T15:20:45;4.18;;;1.67;;
55633;SDS011;41504;53.162;6.788;2023-04-03T15:23:12;4.13;;;1.48;;
55633;SDS011;41504;53.162;6.788;2023-04-03T15:25:41;3.80;;;1.48;;
55633;SDS011;41504;53.162;6.788;2023-04-03T15:28:09;3.95;;;1.60;;
55633;SDS011;41504;53.162;6.788;2023-04-03T15:30:55;2.63;;;1.30;;
55633;SDS011;41504;53.162;6.788;2023-04-03T15:33:22;3.58;;;1.50;;
55633;SDS011;41504;53.162;6.788;2023-04-03T15:35:47;3.72;;;1.50;;
55633;SDS011;41504;53.162;6.788;2023-04-03T15:38:13;4.55;;;1.67;;
55633;SDS011;41504;53.162;6.788;2023-04-03T15:40:39;3.72;;;1.27;;
55633;SDS011;41504;53.162;6.788;2023-04-03T15:43:06;2.67;;;1.27;;
55633;SDS011;41504;53.162;6.788;2023-04-03T15:45:32;4.30;;;1.20;;
55633;SDS011;41504;53.162;6.788;2023-04-03T15:48:01;3.40;;;1.40;;
55633;SDS011;41504;53.162;6.788;2023-04-03T15:50:28;3.72;;;1.20;;
55633;SDS011;41504;53.162;6.788;2023-04-03T15:52:53;3.47;;;1.60;;
55633;SDS011;41504;53.162;6.788;2023-04-03T15:55:21;3.60;;;1.27;;
55633;SDS011;41504;53.162;6.788;2023-04-03T15:57:47;3.47;;;1.98;;
55633;SDS011;41504;53.162;6.788;2023-04-03T16:00:13;4.70;;;1.45;;
55633;SDS011;41504;53.162;6.788;2023-04-03T16:02:40;3.08;;;1.02;;
55633;SDS011;41504;53.162;6.788;2023-04-03T16:05:06;2.72;;;1.20;;
55633;SDS011;41504;53.162;6.788;2023-04-03T16:07:32;3.35;;;1.05;;
55633;SDS011;41504;53.162;6.788;2023-04-03T16:09:58;3.90;;;1.35;;
55633;SDS011;41504;53.162;6.788;2023-04-03T16:12:24;5.40;;;1.42;;
55633;SDS011;41504;53.162;6.788;2023-04-03T16:14:50;4.53;;;1.30;;
55633;SDS011;41504;53.162;6.788;2023-04-03T16:17:16;4.15;;;1.60;;
55633;SDS011;41504;53.162;6.788;2023-04-03T16:19:42;4.43;;;1.10;;
55633;SDS011;41504;53.162;6.788;2023-04-03T16:22:08;3.17;;;1.20;;
55633;SDS011;41504;53.162;6.788;2023-04-03T16:24:34;4.05;;;1.40;;
55633;SDS011;41504;53.162;6.788;2023-04-03T16:27:00;3.65;;;1.40;;
55633;SDS011;41504;53.162;6.788;2023-04-03T16:29:26;3.15;;;1.13;;
55633;SDS011;41504;53.162;6.788;2023-04-03T16:31:52;5.28;;;1.33;;
55633;SDS011;41504;53.162;6.788;2023-04-03T16:34:18;2.67;;;1.20;;
55633;SDS011;41504;53.162;6.788;2023-04-03T16:36:43;3.45;;;1.25;;
55633;SDS011;41504;53.162;6.788;2023-04-03T16:39:09;3.35;;;1.52;;
55633;SDS011;41504;53.162;6.788;2023-04-03T16:41:35;2.50;;;1.30;;
55633;SDS011;41504;53.162;6.788;2023-04-03T16:44:01;4.03;;;1.50;;
55633;SDS011;41504;53.162;6.788;2023-04-03T16:46:27;2.20;;;1.10;;
55633;SDS011;41504;53.162;6.788;2023-04-03T16:48:53;4.15;;;1.40;;
55633;SDS011;41504;53.162;6.788;2023-04-03T16:51:18;4.47;;;1.83;;
55633;SDS011;41504;53.162;6.788;2023-04-03T16:53:44;3.63;;;1.23;;
55633;SDS011;41504;53.162;6.788;2023-04-03T16:56:10;4.93;;;1.70;;
55633;SDS011;41504;53.162;6.788;2023-04-03T16:58:35;2.40;;;1.20;;
55633;SDS011;41504;53.162;6.788;2023-04-03T17:01:15;4.07;;;1.30;;
55633;SDS011;41504;53.162;6.788;2023-04-03T17:03:43;4.13;;;1.52;;
55633;SDS011;41504;53.162;6.788;2023-04-03T17:06:10;4.30;;;1.38;;